This is the latest recevied weather packets stored in our database for station/object G4GVZ-1. If no packets are shown the sender has not sent any weather packets the latest 1 day(s).
| Time | Temp. | Humidity | Pressure | Rain* | Wind** | Luminosity | Snow |
|---|---|---|---|---|---|---|---|
| 1777973223 | 12.78° C | 93% | 1010.6 hPa | 2.79 mm | 0 m/s | - | - |
| 1777972549 | 12.22° C | 72% | 1013.7 hPa | 0 mm | 0.89 m/s, 10° | - | - |
| 1777971650 | 11.67° C | 72% | 1013.9 hPa | 0 mm | 1.34 m/s, 6° | - | - |
| 1777970750 | 11.67° C | 76% | 1014.1 hPa | 0 mm | 0.89 m/s, 8° | - | - |
| 1777969849 | 10.56° C | 80% | 1014.1 hPa | 0 mm | 0.89 m/s, 2° | - | - |
| 1777968949 | 10.56° C | 81% | 1014.3 hPa | 0 mm | 1.79 m/s, 4° | - | - |
| 1777968051 | 10° C | 82% | 1014.2 hPa | 0 mm | 1.34 m/s, 16° | - | - |
| 1777967150 | 10° C | 83% | 1014.1 hPa | 0 mm | 0.89 m/s, 21° | - | - |
| 1777966250 | 10° C | 84% | 1014.1 hPa | 0 mm | 0.89 m/s, 25° | - | - |
| 1777965350 | 10° C | 84% | 1014.1 hPa | 0 mm | 0.89 m/s, 34° | - | - |
| 1777964450 | 10° C | 85% | 1014 hPa | 0 mm | 0.45 m/s, 36° | - | - |
| 1777963547 | 9.44° C | 87% | 1014.1 hPa | 0 mm | 0 m/s | - | - |
| 1777962647 | 8.89° C | 89% | 1013.9 hPa | 0 mm | 0.45 m/s, 67° | - | - |
| 1777961747 | 8.89° C | 90% | 1014 hPa | 0 mm | 0.45 m/s, 76° | - | - |
| 1777960847 | 8.33° C | 93% | 1014.2 hPa | 0 mm | 0 m/s | - | - |
| 1777959946 | 8.33° C | 95% | 1014.2 hPa | 0 mm | 0 m/s | - | - |
| 1777959046 | 8.33° C | 96% | 1014.4 hPa | 0 mm | 0 m/s | - | - |
| 1777958148 | 7.78° C | 95% | 1014.3 hPa | 0 mm | 0 m/s | - | - |
| 1777957248 | 7.78° C | 95% | 1014.3 hPa | 0 mm | 0 m/s | - | - |
| 1777956347 | 7.78° C | 95% | 1014.2 hPa | 0 mm | 0 m/s | - | - |
| 1777955447 | 7.78° C | 94% | 1014 hPa | 0 mm | 0 m/s | - | - |
| 1777954547 | 7.78° C | 94% | 1013.9 hPa | 0 mm | 0 m/s | - | - |
* Rain latest hour (hover to see other rain measurements)
** Current wind speed in m/s (hover to see current wind gust speed)